Time;durP1;ratioP1;P1;durP2;ratioP2;P2;SDS_P1;SDS_P2;PMS_P1;PMS_P2;Temp;Humidity;BMP_temperature;BMP_pressure;BME280_temperature;BME280_humidity;BME280_pressure;Samples;Min_cycle;Max_cycle;Signal;HPM_P1;HPM_P2
2020/12/18 00:01:11;;;;;;;;;;;;;;;20.78;28.53;98881.97;5105540;28;949;-75
2020/12/18 00:03:36;;;;;;;;;;;;;;;22.04;27.22;98884.16;5122729;28;709;-73
2020/12/18 00:06:02;;;;;;;;;;;;;;;22.51;26.51;98887.09;5123196;28;689;-75
2020/12/18 00:08:27;;;;;;;;;;;;;;;22.61;26.34;98891.81;5122723;28;642;-73
2020/12/18 00:10:53;;;;;;;;;;;;;;;22.68;26.25;98891.66;5122345;28;1105;-74
2020/12/18 00:13:18;;;;;;;;;;;;;;;22.75;25.72;98891.56;5122274;28;1901;-75
2020/12/18 00:15:44;;;;;;;;;;;;;;;22.52;25.87;98894.38;5122709;28;1152;-73
2020/12/18 00:18:09;;;;;;;;;;;;;;;21.61;27.50;98893.22;5122426;28;692;-73
2020/12/18 00:20:34;;;;;;;;;;;;;;;21.42;27.45;98891.03;5122632;28;619;-74
2020/12/18 00:23:00;;;;;;;;;;;;;;;21.85;27.38;98897.75;5122714;28;597;-75
2020/12/18 00:25:25;;;;;;;;;;;;;;;22.50;26.28;98879.84;5122220;28;970;-74
2020/12/18 00:27:51;;;;;;;;;;;;;;;22.49;26.29;98889.59;5122082;28;824;-74
2020/12/18 00:30:16;;;;;;;;;;;;;;;22.85;25.61;98890.56;5122331;28;853;-73
2020/12/18 00:32:42;;;;;;;;;;;;;;;22.97;25.73;98891.22;5122177;28;1969;-75
2020/12/18 00:35:08;;;;;;;;;;;;;;;21.76;26.83;98894.66;5122150;28;842;-74
2020/12/18 00:37:33;;;;;;;;;;;;;;;21.48;27.47;98895.00;5121866;28;943;-74
2020/12/18 00:39:59;;;;;;;;;;;;;;;21.60;27.46;98894.44;5121703;28;1122;-75
2020/12/18 00:42:27;;;;;;;;;;;;;;;22.22;26.61;98903.75;5122033;28;834;-75
2020/12/18 00:44:52;;;;;;;;;;;;;;;22.56;26.04;98886.63;5105049;28;1209;-75
2020/12/18 00:47:17;;;;;;;;;;;;;;;22.58;26.28;98886.97;5122110;28;678;-75
2020/12/18 00:49:43;;;;;;;;;;;;;;;22.76;25.92;98890.31;5121741;28;645;-75
2020/12/18 00:52:08;;;;;;;;;;;;;;;22.94;25.52;98892.06;5104371;28;1894;-75
2020/12/18 00:54:35;;;;;;;;;;;;;;;22.79;25.52;98897.97;5103703;28;1284;-73
2020/12/18 00:57:00;;;;;;;;;;;;;;;22.05;26.70;98889.38;5121726;28;966;-75
2020/12/18 00:59:26;;;;;;;;;;;;;;;21.30;27.50;98890.34;5121824;28;606;-74
2020/12/18 01:01:58;;;;;;;;;;;;;;;21.73;27.55;98895.50;5104545;28;1243;-75
2020/12/18 01:04:24;;;;;;;;;;;;;;;22.25;26.60;98900.06;5104061;28;1117;-75
2020/12/18 01:06:51;;;;;;;;;;;;;;;22.55;26.29;98893.53;5104203;28;1125;-75
2020/12/18 01:09:17;;;;;;;;;;;;;;;22.88;25.65;98895.41;5104290;28;1183;-75
2020/12/18 01:11:42;;;;;;;;;;;;;;;21.71;26.97;98892.28;5104183;28;1889;-75
2020/12/18 01:14:12;;;;;;;;;;;;;;;21.56;27.38;98896.53;5104209;28;1263;-75
2020/12/18 01:16:49;;;;;;;;;;;;;;;21.48;27.62;98889.34;5104248;28;1217;-75
2020/12/18 01:19:15;;;;;;;;;;;;;;;21.61;27.73;98876.25;5086590;28;1704;-74
2020/12/18 01:21:41;;;;;;;;;;;;;;;21.75;27.53;98876.03;5103744;28;1193;-74
2020/12/18 01:24:07;;;;;;;;;;;;;;;21.76;27.52;98877.66;5103445;28;1298;-74
2020/12/18 01:26:36;;;;;;;;;;;;;;;21.50;28.02;98875.53;5103669;28;1233;-74
2020/12/18 01:29:02;;;;;;;;;;;;;;;22.20;26.72;98878.66;5103854;28;1058;-74
2020/12/18 01:31:29;;;;;;;;;;;;;;;22.71;25.79;98879.47;5102953;28;2207;-75
2020/12/18 01:33:56;;;;;;;;;;;;;;;22.67;25.93;98878.72;5103156;28;1333;-74
2020/12/18 01:36:27;;;;;;;;;;;;;;;22.71;26.07;98876.63;5121596;28;885;-74
2020/12/18 01:39:02;;;;;;;;;;;;;;;22.14;26.57;98871.09;5103355;28;1434;-75
2020/12/18 01:41:31;;;;;;;;;;;;;;;21.23;27.98;98866.94;5103887;28;1194;-75
2020/12/18 01:43:56;;;;;;;;;;;;;;;21.76;26.90;98874.81;5103973;28;1193;-75
2020/12/18 01:46:22;;;;;;;;;;;;;;;22.43;26.68;98868.59;5103388;28;1170;-75
2020/12/18 01:48:51;;;;;;;;;;;;;;;22.74;25.79;98872.13;5087082;28;1509;-74
2020/12/18 01:51:17;;;;;;;;;;;;;;;22.39;26.54;98857.31;5086846;28;1905;-75
2020/12/18 01:53:45;;;;;;;;;;;;;;;22.98;25.33;98864.44;5103661;28;1337;-75
2020/12/18 01:56:37;;;;;;;;;;;;;;;22.11;26.63;98869.91;5118926;28;1162;-75
2020/12/18 01:59:10;;;;;;;;;;;;;;;21.51;27.36;98874.34;5087898;28;1306;-75
2020/12/18 02:01:54;;;;;;;;;;;;;;;21.60;27.13;98871.78;5120343;28;842;-75
2020/12/18 02:04:30;;;;;;;;;;;;;;;21.87;27.35;98874.69;5103598;28;1161;-75
2020/12/18 02:06:56;;;;;;;;;;;;;;;22.43;26.46;98871.44;5121171;28;666;-74
2020/12/18 02:09:34;;;;;;;;;;;;;;;22.70;25.78;98872.19;5103279;28;1212;-74
2020/12/18 02:12:03;;;;;;;;;;;;;;;22.42;26.03;98872.66;5103301;28;1980;-75
2020/12/18 02:14:31;;;;;;;;;;;;;;;22.60;25.97;98876.81;5102694;28;1077;-75
2020/12/18 02:16:58;;;;;;;;;;;;;;;22.20;26.33;98867.34;5103430;28;1258;-75
2020/12/18 02:19:44;;;;;;;;;;;;;;;21.44;27.52;98869.56;5120331;28;1048;-75
2020/12/18 02:22:15;;;;;;;;;;;;;;;21.86;27.29;98875.88;5103523;28;1185;-75
2020/12/18 02:24:50;;;;;;;;;;;;;;;22.52;26.18;98874.53;5103334;28;1303;-75
2020/12/18 02:27:17;;;;;;;;;;;;;;;22.74;25.66;98872.94;5103623;28;1302;-75
2020/12/18 02:29:51;;;;;;;;;;;;;;;22.94;25.38;98880.72;5102972;28;1066;-75
2020/12/18 02:32:17;;;;;;;;;;;;;;;22.65;26.09;98874.72;5103057;28;1962;-75
2020/12/18 02:34:50;;;;;;;;;;;;;;;22.79;25.29;98880.94;5103201;28;1102;-75
2020/12/18 02:37:24;;;;;;;;;;;;;;;21.50;27.43;98875.53;5103229;28;1042;-75
2020/12/18 02:39:55;;;;;;;;;;;;;;;21.64;27.14;98869.72;5103067;28;1241;-75
2020/12/18 02:42:33;;;;;;;;;;;;;;;21.91;27.40;98877.44;5103063;28;1085;-74
2020/12/18 02:44:59;;;;;;;;;;;;;;;22.15;26.58;98870.66;5120476;28;643;-74
2020/12/18 02:47:39;;;;;;;;;;;;;;;22.62;26.14;98877.19;5120275;28;1203;-75
2020/12/18 02:50:11;;;;;;;;;;;;;;;22.73;25.77;98879.84;5102552;28;1162;-74
2020/12/18 02:52:48;;;;;;;;;;;;;;;22.72;25.81;98875.41;5103023;28;1910;-74
2020/12/18 02:55:32;;;;;;;;;;;;;;;22.07;26.25;98881.28;5120346;28;586;-73
2020/12/18 02:58:18;;;;;;;;;;;;;;;21.33;27.53;98883.84;5089203;28;1163;-74
2020/12/18 03:00:54;;;;;;;;;;;;;;;21.71;27.12;98878.13;5120418;28;672;-73
2020/12/18 03:03:26;;;;;;;;;;;;;;;21.97;26.98;98884.25;5102566;28;1292;-75
2020/12/18 03:06:06;;;;;;;;;;;;;;;22.38;26.17;98884.06;5102279;28;1154;-74
2020/12/18 03:08:40;;;;;;;;;;;;;;;22.61;25.90;98888.97;5120287;28;668;-73
2020/12/18 03:11:08;;;;;;;;;;;;;;;22.75;25.70;98885.91;5120143;28;677;-74
2020/12/18 03:13:33;;;;;;;;;;;;;;;22.83;25.67;98887.34;5122244;28;1976;-74
2020/12/18 03:15:59;;;;;;;;;;;;;;;22.77;25.66;98883.41;5106244;28;1399;-74
2020/12/18 03:18:48;;;;;;;;;;;;;;;22.25;26.22;98885.91;5106497;28;1189;-74
2020/12/18 03:21:15;;;;;;;;;;;;;;;21.47;27.08;98879.25;5106575;28;1327;-74
2020/12/18 03:23:58;;;;;;;;;;;;;;;21.33;27.53;98891.53;5123957;28;638;-74
2020/12/18 03:26:39;;;;;;;;;;;;;;;22.06;27.04;98895.84;5106373;28;1193;-74
2020/12/18 03:29:22;;;;;;;;;;;;;;;22.47;26.34;98892.03;5106241;28;1358;-74
2020/12/18 03:31:49;;;;;;;;;;;;;;;22.68;25.87;98891.66;5105686;28;1894;-74
2020/12/18 03:34:14;;;;;;;;;;;;;;;22.66;26.00;98896.97;5105826;28;1164;-74
2020/12/18 03:36:48;;;;;;;;;;;;;;;22.69;25.80;98893.31;5106203;28;1370;-75
2020/12/18 03:39:14;;;;;;;;;;;;;;;22.65;25.59;98886.06;5123514;28;1078;-74
2020/12/18 03:42:00;;;;;;;;;;;;;;;21.50;27.36;98886.88;5105819;28;1366;-74
2020/12/18 03:44:25;;;;;;;;;;;;;;;21.35;27.53;98888.25;5106452;28;1264;-73
2020/12/18 03:46:52;;;;;;;;;;;;;;;21.89;27.16;98891.25;5105657;28;1292;-74
2020/12/18 03:49:32;;;;;;;;;;;;;;;22.38;26.28;98883.25;5105647;28;1389;-74
2020/12/18 03:52:03;;;;;;;;;;;;;;;22.57;25.89;98891.84;5123403;28;1906;-74
2020/12/18 03:54:34;;;;;;;;;;;;;;;22.75;25.76;98890.78;5105736;28;1141;-74
2020/12/18 03:57:28;;;;;;;;;;;;;;;22.66;25.68;98887.69;5123215;28;917;-74
2020/12/18 04:00:05;;;;;;;;;;;;;;;22.77;25.47;98889.09;5099580;28;1154;-74
2020/12/18 04:02:44;;;;;;;;;;;;;;;22.08;26.47;98888.53;5096078;28;1362;-74
2020/12/18 04:05:12;;;;;;;;;;;;;;;21.27;27.29;98891.16;5094158;28;1305;-74
2020/12/18 04:07:39;;;;;;;;;;;;;;;21.49;27.22;98896.59;5094173;28;1292;-76
2020/12/18 04:10:16;;;;;;;;;;;;;;;22.17;26.55;98896.53;5094215;28;1318;-76
2020/12/18 04:12:57;;;;;;;;;;;;;;;22.42;25.80;98896.16;5079814;28;1906;-75
2020/12/18 04:15:23;;;;;;;;;;;;;;;22.66;25.55;98905.50;5093558;28;1241;-74
2020/12/18 04:17:48;;;;;;;;;;;;;;;22.75;25.44;98897.25;5095597;28;1314;-74
2020/12/18 04:20:15;;;;;;;;;;;;;;;22.93;25.20;98904.66;5105157;28;840;-74
2020/12/18 04:22:52;;;;;;;;;;;;;;;22.53;25.50;98904.47;5105178;28;1136;-75
2020/12/18 04:25:40;;;;;;;;;;;;;;;21.62;27.09;98897.66;5121689;28;867;-74
2020/12/18 04:28:06;;;;;;;;;;;;;;;20.75;28.02;98899.75;5104709;28;1328;-74
2020/12/18 04:30:32;;;;;;;;;;;;;;;22.04;26.73;98899.13;5093369;28;1192;-74
2020/12/18 04:32:58;;;;;;;;;;;;;;;22.43;26.13;98896.94;5077973;28;1906;-74
2020/12/18 04:35:24;;;;;;;;;;;;;;;22.60;25.75;98901.56;5077706;28;1332;-73
2020/12/18 04:38:05;;;;;;;;;;;;;;;22.51;25.84;98898.44;5093192;28;1170;-75
2020/12/18 04:40:46;;;;;;;;;;;;;;;22.84;25.51;98897.47;5093464;28;1224;-74
2020/12/18 04:43:20;;;;;;;;;;;;;;;23.08;24.86;98903.97;5105249;28;1038;-74
2020/12/18 04:45:49;;;;;;;;;;;;;;;21.71;26.79;98903.63;5068545;28;1199;-74
2020/12/18 04:48:26;;;;;;;;;;;;;;;21.02;27.50;98885.75;5062390;28;1433;-74
2020/12/18 04:50:54;;;;;;;;;;;;;;;21.47;27.16;98893.41;5064543;28;1509;-74
2020/12/18 04:53:25;;;;;;;;;;;;;;;21.95;26.97;98900.88;5076649;28;1914;-74
2020/12/18 04:56:05;;;;;;;;;;;;;;;22.41;26.05;98885.25;5069445;28;1061;-74
2020/12/18 04:58:37;;;;;;;;;;;;;;;22.72;25.59;98894.47;5061893;28;1532;-74
2020/12/18 05:01:03;;;;;;;;;;;;;;;22.65;25.67;98897.44;5064325;28;1480;-75
2020/12/18 05:03:45;;;;;;;;;;;;;;;22.44;25.88;98892.91;5063758;28;1285;-75
2020/12/18 05:06:15;;;;;;;;;;;;;;;21.11;27.36;98888.09;5064208;28;1186;-74
2020/12/18 05:08:43;;;;;;;;;;;;;;;21.22;27.31;98897.28;5065320;28;1559;-74
2020/12/18 05:11:16;;;;;;;;;;;;;;;21.75;27.25;98904.34;5069989;28;1571;-74
2020/12/18 05:13:43;;;;;;;;;;;;;;;22.38;26.24;98905.94;5083937;28;1906;-74
2020/12/18 05:16:10;;;;;;;;;;;;;;;22.58;25.71;98895.47;5083542;28;1209;-75
2020/12/18 05:19:01;;;;;;;;;;;;;;;22.47;25.99;98909.03;5099998;28;1472;-74
2020/12/18 05:21:40;;;;;;;;;;;;;;;22.58;25.59;98904.00;5064026;28;1273;-75
2020/12/18 05:24:09;;;;;;;;;;;;;;;22.43;25.89;98902.63;5100284;28;1639;-74
2020/12/18 05:26:41;;;;;;;;;;;;;;;21.38;27.31;98901.59;5084234;28;1146;-75
2020/12/18 05:29:09;;;;;;;;;;;;;;;21.02;27.78;98904.75;5082628;28;1593;-74
2020/12/18 05:31:54;;;;;;;;;;;;;;;21.97;26.79;98904.91;5091853;28;1894;-74
2020/12/18 05:34:27;;;;;;;;;;;;;;;22.21;26.55;98914.28;5082975;28;1507;-74
2020/12/18 05:37:00;;;;;;;;;;;;;;;22.63;25.68;98912.00;5066484;28;2038;-74
2020/12/18 05:39:58;;;;;;;;;;;;;;;22.88;25.42;98918.09;5037782;28;1394;-74
2020/12/18 05:42:52;;;;;;;;;;;;;;;22.92;25.32;98914.41;5067441;28;1115;-74
2020/12/18 05:45:26;;;;;;;;;;;;;;;21.92;26.38;98913.06;5063475;28;1376;-74
2020/12/18 05:48:09;;;;;;;;;;;;;;;21.87;26.21;98924.88;5057097;28;1494;-75
2020/12/18 05:50:49;;;;;;;;;;;;;;;21.81;26.96;98924.53;5083161;28;1222;-74
2020/12/18 05:53:15;;;;;;;;;;;;;;;22.28;26.52;98934.03;5083363;28;1984;-74
2020/12/18 05:55:54;;;;;;;;;;;;;;;22.53;26.10;98924.34;5068809;28;1335;-74
2020/12/18 05:58:41;;;;;;;;;;;;;;;22.77;25.53;98925.97;5088593;28;1511;-74
2020/12/18 06:01:26;;;;;;;;;;;;;;;22.96;25.24;98930.16;5084915;28;1322;-74
2020/12/18 06:04:16;;;;;;;;;;;;;;;22.58;25.75;98923.84;5069768;28;1539;-75
2020/12/18 06:06:47;;;;;;;;;;;;;;;21.46;27.30;98937.09;5064793;28;1527;-74
2020/12/18 06:09:19;;;;;;;;;;;;;;;20.96;28.36;98938.38;5087075;28;1881;-75
2020/12/18 06:11:44;;;;;;;;;;;;;;;21.83;27.14;98939.88;5073958;28;1902;-74
2020/12/18 06:14:10;;;;;;;;;;;;;;;22.23;26.62;98934.53;5100350;28;662;-75
2020/12/18 06:16:45;;;;;;;;;;;;;;;22.46;25.83;98935.81;5065223;28;1629;-74
2020/12/18 06:19:20;;;;;;;;;;;;;;;22.54;25.91;98926.75;5062787;28;1198;-75
2020/12/18 06:22:06;;;;;;;;;;;;;;;22.85;25.49;98938.81;5079695;28;813;-74
2020/12/18 06:24:57;;;;;;;;;;;;;;;22.63;25.61;98931.88;5049846;28;948;-75
2020/12/18 06:27:41;;;;;;;;;;;;;;;21.36;27.51;98943.69;5082810;28;1384;-74
2020/12/18 06:30:20;;;;;;;;;;;;;;;21.41;27.31;98980.03;5064866;28;1359;-75
2020/12/18 06:33:14;;;;;;;;;;;;;;;22.03;27.15;98947.72;5014427;28;1902;-75
2020/12/18 06:36:06;;;;;;;;;;;;;;;22.43;25.91;98945.16;5096190;28;1006;-75
2020/12/18 06:38:31;;;;;;;;;;;;;;;22.74;25.56;98945.88;5099030;28;1555;-75
2020/12/18 06:41:24;;;;;;;;;;;;;;;22.77;25.53;98940.16;5091115;28;1695;-75
2020/12/18 06:44:31;;;;;;;;;;;;;;;21.94;26.44;98944.59;5068418;28;939;-74
2020/12/18 06:47:12;;;;;;;;;;;;;;;21.43;27.08;98940.75;5062865;28;1634;-75
2020/12/18 06:50:02;;;;;;;;;;;;;;;21.32;27.43;98950.19;5051120;28;1217;-75
2020/12/18 06:52:51;;;;;;;;;;;;;;;22.16;26.69;98945.94;5082400;28;1894;-75
2020/12/18 06:55:26;;;;;;;;;;;;;;;22.51;25.99;98950.31;5073776;28;1322;-75
2020/12/18 06:58:32;;;;;;;;;;;;;;;22.64;25.89;98942.00;5062185;28;1255;-75
2020/12/18 07:00:58;;;;;;;;;;;;;;;22.77;25.30;98948.66;5062504;28;658;-75
2020/12/18 07:03:37;;;;;;;;;;;;;;;22.92;25.38;98945.63;5075662;28;1119;-75
2020/12/18 07:06:12;;;;;;;;;;;;;;;22.67;25.35;98952.47;5112296;28;1511;-75
2020/12/18 07:08:38;;;;;;;;;;;;;;;22.09;26.06;98951.69;5091778;28;1594;-75
2020/12/18 07:11:05;;;;;;;;;;;;;;;21.69;26.80;98957.03;5103723;28;930;-75
2020/12/18 07:13:30;;;;;;;;;;;;;;;21.65;27.01;98961.94;5103655;28;1977;-75
2020/12/18 07:16:06;;;;;;;;;;;;;;;22.23;26.49;98973.41;5103191;28;1539;-75
2020/12/18 07:18:33;;;;;;;;;;;;;;;22.58;25.59;98972.06;5087105;28;1488;-75
2020/12/18 07:21:06;;;;;;;;;;;;;;;22.75;25.49;98961.69;5086711;28;694;-75
2020/12/18 07:23:32;;;;;;;;;;;;;;;22.90;25.15;98962.28;5103277;28;972;-75
2020/12/18 07:25:57;;;;;;;;;;;;;;;22.94;24.85;98966.66;5103349;28;960;-75
2020/12/18 07:28:23;;;;;;;;;;;;;;;21.50;26.71;98966.16;5101460;28;1979;-75
2020/12/18 07:30:49;;;;;;;;;;;;;;;21.63;26.60;98957.94;5086090;28;651;-75
2020/12/18 07:33:15;;;;;;;;;;;;;;;21.37;27.23;98962.28;5103431;28;1898;-75
2020/12/18 07:35:41;;;;;;;;;;;;;;;22.34;25.85;98963.53;5103430;28;663;-74
2020/12/18 07:38:13;;;;;;;;;;;;;;;22.75;25.27;98965.34;5101184;28;1516;-74
2020/12/18 07:40:38;;;;;;;;;;;;;;;22.84;24.88;98957.06;5102997;28;1000;-74
2020/12/18 07:43:23;;;;;;;;;;;;;;;23.09;24.60;98956.66;5103125;28;856;-74
2020/12/18 07:45:51;;;;;;;;;;;;;;;22.93;24.84;98958.59;5085953;28;628;-75
2020/12/18 07:48:18;;;;;;;;;;;;;;;21.90;26.35;98967.31;5100837;28;1515;-75
2020/12/18 07:50:53;;;;;;;;;;;;;;;21.88;26.29;98963.31;5103460;28;664;-75
2020/12/18 07:53:19;;;;;;;;;;;;;;;21.53;26.93;98971.00;5085409;28;1979;-75
2020/12/18 07:55:55;;;;;;;;;;;;;;;22.16;26.21;98967.81;5085288;28;951;-75
2020/12/18 07:58:21;;;;;;;;;;;;;;;22.56;25.24;98968.88;5083909;28;1554;-75
2020/12/18 08:00:46;;;;;;;;;;;;;;;22.62;25.00;98967.16;5101692;28;1661;-75
2020/12/18 08:03:12;;;;;;;;;;;;;;;22.87;25.06;98967.56;5086361;28;1702;-74
2020/12/18 08:05:38;;;;;;;;;;;;;;;22.41;25.11;98973.16;5093179;28;1637;-75
2020/12/18 08:08:03;;;;;;;;;;;;;;;21.75;26.27;98971.53;5084796;28;1227;-75
2020/12/18 08:10:29;;;;;;;;;;;;;;;21.18;26.90;98969.28;5083821;28;1416;-75
2020/12/18 08:12:54;;;;;;;;;;;;;;;21.81;26.84;98959.34;5085302;28;1962;-74
2020/12/18 08:15:20;;;;;;;;;;;;;;;22.52;25.45;98968.13;5102560;28;726;-75
2020/12/18 08:17:45;;;;;;;;;;;;;;;22.79;25.32;98960.38;5102532;28;670;-74
2020/12/18 08:20:14;;;;;;;;;;;;;;;22.79;25.08;98968.91;5101550;28;1337;-75
2020/12/18 08:22:43;;;;;;;;;;;;;;;22.96;24.60;98977.59;5102236;28;904;-75
2020/12/18 08:25:09;;;;;;;;;;;;;;;22.85;24.63;98975.72;5102212;28;871;-74
2020/12/18 08:27:37;;;;;;;;;;;;;;;21.64;26.41;98971.66;5084820;28;823;-74
2020/12/18 08:30:03;;;;;;;;;;;;;;;21.82;25.96;98971.47;5100761;28;1656;-75
2020/12/18 08:32:28;;;;;;;;;;;;;;;21.66;26.92;98969.25;5102346;28;1905;-75
2020/12/18 08:35:00;;;;;;;;;;;;;;;22.17;26.10;98970.22;5084740;28;571;-75
2020/12/18 08:37:26;;;;;;;;;;;;;;;22.39;25.74;98965.06;5102269;28;850;-75
2020/12/18 08:39:51;;;;;;;;;;;;;;;22.73;24.99;98962.09;5100087;28;1520;-75
2020/12/18 08:42:17;;;;;;;;;;;;;;;22.65;25.28;98968.34;5102186;28;872;-75
2020/12/18 08:44:43;;;;;;;;;;;;;;;21.66;26.28;98962.75;5086508;28;1527;-75
2020/12/18 08:47:21;;;;;;;;;;;;;;;21.32;27.02;98957.88;5082205;28;760;-75
2020/12/18 08:49:46;;;;;;;;;;;;;;;21.92;26.55;98970.53;5082888;28;1535;-75
2020/12/18 08:52:12;;;;;;;;;;;;;;;22.51;25.38;98966.53;5081303;28;1898;-75
2020/12/18 08:54:40;;;;;;;;;;;;;;;22.81;25.12;98957.94;5081178;28;910;-74
2020/12/18 08:57:26;;;;;;;;;;;;;;;22.78;25.13;98957.97;5081779;28;877;-75
2020/12/18 08:59:55;;;;;;;;;;;;;;;22.41;25.22;98961.81;5081215;28;1521;-75
2020/12/18 09:02:20;;;;;;;;;;;;;;;21.56;26.36;98947.50;5065360;28;1655;-75
2020/12/18 09:04:46;;;;;;;;;;;;;;;20.70;27.76;98942.63;5081390;28;591;-74
2020/12/18 09:07:11;;;;;;;;;;;;;;;21.68;26.71;98944.13;5080995;28;823;-75
2020/12/18 09:09:52;;;;;;;;;;;;;;;22.51;25.58;98949.50;5081156;28;800;-75
2020/12/18 09:12:17;;;;;;;;;;;;;;;22.73;24.98;98945.09;5082312;28;1962;-75
2020/12/18 09:14:42;;;;;;;;;;;;;;;22.84;24.94;98945.69;5081560;28;1484;-75
2020/12/18 09:17:08;;;;;;;;;;;;;;;22.81;24.82;98946.59;5081202;28;654;-75
2020/12/18 09:19:33;;;;;;;;;;;;;;;23.04;24.61;98947.84;5083402;28;1666;-75
2020/12/18 09:22:02;;;;;;;;;;;;;;;22.17;25.48;98944.72;5063709;28;1319;-74
2020/12/18 09:24:28;;;;;;;;;;;;;;;21.09;27.04;98952.81;5080656;28;955;-75
2020/12/18 09:27:06;;;;;;;;;;;;;;;21.46;26.95;98942.75;5081069;28;947;-74
2020/12/18 09:29:32;;;;;;;;;;;;;;;22.11;26.22;98937.91;5083821;28;1610;-75
2020/12/18 09:31:57;;;;;;;;;;;;;;;22.54;25.20;98935.28;5080788;28;1898;-74
2020/12/18 09:34:23;;;;;;;;;;;;;;;22.83;25.03;98938.44;5080846;28;742;-75
2020/12/18 09:36:48;;;;;;;;;;;;;;;22.91;24.68;98933.47;5080474;28;1070;-75
2020/12/18 09:39:14;;;;;;;;;;;;;;;22.64;25.36;98936.34;5083471;28;1555;-75
2020/12/18 09:41:39;;;;;;;;;;;;;;;21.78;26.19;98936.72;5100969;28;917;-74
2020/12/18 09:44:04;;;;;;;;;;;;;;;21.04;27.21;98933.47;5100988;28;681;-75
2020/12/18 09:46:30;;;;;;;;;;;;;;;20.80;27.54;98936.09;5101034;28;669;-75
2020/12/18 09:48:55;;;;;;;;;;;;;;;22.07;26.13;98931.47;5100925;28;678;-75
2020/12/18 09:51:21;;;;;;;;;;;;;;;22.41;25.60;98939.91;5098271;28;1531;-75
2020/12/18 09:53:46;;;;;;;;;;;;;;;22.73;25.19;98933.72;5080489;28;1996;-74
2020/12/18 09:56:12;;;;;;;;;;;;;;;22.90;24.81;98937.56;5080610;28;936;-74
2020/12/18 09:58:38;;;;;;;;;;;;;;;22.71;24.93;98939.06;5093096;28;1500;-74
2020/12/18 10:01:03;;;;;;;;;;;;;;;22.80;24.81;98933.63;5100865;28;653;-74
2020/12/18 10:03:29;;;;;;;;;;;;;;;22.81;24.75;98934.44;5100684;28;705;-74
2020/12/18 10:05:54;;;;;;;;;;;;;;;21.84;26.04;98924.47;5100487;28;888;-74
2020/12/18 10:08:19;;;;;;;;;;;;;;;21.32;26.66;98933.19;5098350;28;1563;-73
2020/12/18 10:10:45;;;;;;;;;;;;;;;21.14;27.19;98931.72;5100825;28;852;-74
2020/12/18 10:13:11;;;;;;;;;;;;;;;21.93;26.45;98931.66;5100390;28;1910;-74
2020/12/18 10:15:36;;;;;;;;;;;;;;;22.19;25.67;98942.28;5085321;28;1625;-74
2020/12/18 10:18:02;;;;;;;;;;;;;;;22.70;25.08;98934.63;5062947;28;898;-75
2020/12/18 10:20:27;;;;;;;;;;;;;;;22.68;25.11;98928.56;5079895;28;968;-75
2020/12/18 10:22:53;;;;;;;;;;;;;;;22.78;24.84;98935.28;5079399;28;844;-75
2020/12/18 10:25:18;;;;;;;;;;;;;;;21.56;26.04;98927.69;5086479;28;1563;-74
2020/12/18 10:27:44;;;;;;;;;;;;;;;21.68;26.41;98932.78;5100380;28;606;-75
2020/12/18 10:30:09;;;;;;;;;;;;;;;20.90;27.40;98939.25;5100345;28;716;-74
2020/12/18 10:32:35;;;;;;;;;;;;;;;21.38;27.40;98929.91;5100426;28;1906;-75
2020/12/18 10:35:00;;;;;;;;;;;;;;;22.15;25.73;98930.19;5099344;28;1472;-75
2020/12/18 10:37:27;;;;;;;;;;;;;;;22.55;25.11;98924.72;5080799;28;1550;-75
2020/12/18 10:39:52;;;;;;;;;;;;;;;22.85;24.97;98933.16;5099235;28;1532;-75
2020/12/18 10:42:18;;;;;;;;;;;;;;;22.81;24.58;98925.94;5100318;28;687;-75
2020/12/18 10:44:44;;;;;;;;;;;;;;;22.51;25.06;98926.81;5096629;28;1638;-75
2020/12/18 10:47:09;;;;;;;;;;;;;;;21.76;26.39;98930.66;5080481;28;690;-75
2020/12/18 10:49:34;;;;;;;;;;;;;;;21.24;27.07;98931.66;5079869;28;1480;-74
2020/12/18 10:52:01;;;;;;;;;;;;;;;21.65;26.62;98933.63;5096291;28;1979;-75
2020/12/18 10:54:27;;;;;;;;;;;;;;;22.15;25.85;98927.34;5100147;28;867;-74
2020/12/18 10:56:53;;;;;;;;;;;;;;;22.45;25.39;98928.53;5100175;28;701;-75
2020/12/18 10:59:19;;;;;;;;;;;;;;;22.60;25.23;98915.72;5085142;28;1575;-75
2020/12/18 11:01:44;;;;;;;;;;;;;;;22.74;25.06;98918.34;5079816;28;635;-75
2020/12/18 11:04:10;;;;;;;;;;;;;;;22.79;24.76;98920.66;5087388;28;1979;-75
2020/12/18 11:06:38;;;;;;;;;;;;;;;21.67;26.54;98924.72;5099992;28;887;-75
2020/12/18 11:09:04;;;;;;;;;;;;;;;20.99;27.58;98920.56;5089910;28;1453;-75
2020/12/18 11:11:29;;;;;;;;;;;;;;;21.51;26.81;98916.81;5062524;28;722;-74
2020/12/18 11:13:58;;;;;;;;;;;;;;;22.04;26.27;98912.50;5079578;28;1963;-75
2020/12/18 11:16:23;;;;;;;;;;;;;;;22.36;25.71;98912.03;5079792;28;646;-75
2020/12/18 11:18:49;;;;;;;;;;;;;;;22.56;25.59;98906.47;5084407;28;1595;-74
2020/12/18 11:21:14;;;;;;;;;;;;;;;22.71;25.18;98907.84;5099609;28;826;-75
2020/12/18 11:23:40;;;;;;;;;;;;;;;22.94;24.80;98906.25;5099727;28;877;-75
2020/12/18 11:26:05;;;;;;;;;;;;;;;22.41;25.35;98911.56;5091178;28;1562;-75
2020/12/18 11:28:31;;;;;;;;;;;;;;;21.80;26.03;98909.56;5094475;28;1566;-75
2020/12/18 11:30:56;;;;;;;;;;;;;;;21.43;26.63;98910.41;5091392;28;1416;-73
2020/12/18 11:33:22;;;;;;;;;;;;;;;21.89;26.56;98913.91;5105191;28;1963;-75
2020/12/18 11:35:47;;;;;;;;;;;;;;;22.33;25.67;98910.88;5122325;28;898;-75
2020/12/18 11:38:13;;;;;;;;;;;;;;;22.53;25.34;98907.31;5092727;28;1463;-74
2020/12/18 11:40:38;;;;;;;;;;;;;;;22.51;25.59;98910.59;5083054;28;1141;-74
2020/12/18 11:43:04;;;;;;;;;;;;;;;22.56;25.47;98921.44;5082915;28;620;-75
2020/12/18 11:45:30;;;;;;;;;;;;;;;22.74;24.84;98912.66;5065747;28;638;-75
2020/12/18 11:47:55;;;;;;;;;;;;;;;21.78;25.96;98912.03;5083907;28;1527;-75
2020/12/18 11:50:21;;;;;;;;;;;;;;;21.22;26.91;98917.09;5082688;28;1523;-74
2020/12/18 11:52:46;;;;;;;;;;;;;;;21.26;27.10;98920.69;5098396;28;1906;-74
2020/12/18 11:55:12;;;;;;;;;;;;;;;22.05;26.40;98912.06;5123604;28;673;-75
2020/12/18 11:57:37;;;;;;;;;;;;;;;22.40;25.63;98917.66;5123690;28;649;-75
2020/12/18 12:00:04;;;;;;;;;;;;;;;22.61;25.36;98911.66;5123368;28;656;-75
2020/12/18 12:02:38;;;;;;;;;;;;;;;22.68;25.15;98908.69;5123068;28;792;-75
2020/12/18 12:05:03;;;;;;;;;;;;;;;22.82;25.10;98908.47;5088323;28;1585;-75
2020/12/18 12:07:30;;;;;;;;;;;;;;;21.96;26.19;98913.81;5086377;28;1496;-75
2020/12/18 12:09:55;;;;;;;;;;;;;;;21.53;26.91;98922.84;5102760;28;633;-75
2020/12/18 12:12:21;;;;;;;;;;;;;;;20.94;27.72;98911.72;5099491;28;1902;-75
2020/12/18 12:14:46;;;;;;;;;;;;;;;21.91;26.66;98909.41;5102783;28;597;-75
2020/12/18 12:17:12;;;;;;;;;;;;;;;22.34;25.85;98912.47;5102373;28;975;-75
2020/12/18 12:19:37;;;;;;;;;;;;;;;22.59;25.26;98906.44;5102395;28;807;-75
2020/12/18 12:22:03;;;;;;;;;;;;;;;22.69;25.15;98907.47;5101062;28;1468;-74
2020/12/18 12:24:28;;;;;;;;;;;;;;;22.60;25.29;98910.06;5100289;28;1649;-75
2020/12/18 12:26:54;;;;;;;;;;;;;;;22.80;24.91;98922.28;5102647;28;669;-75
2020/12/18 12:29:19;;;;;;;;;;;;;;;21.82;26.46;98920.47;5102804;28;676;-74
2020/12/18 12:31:44;;;;;;;;;;;;;;;21.55;26.66;98923.22;5102012;28;1973;-74
2020/12/18 12:34:10;;;;;;;;;;;;;;;21.38;27.04;98924.25;5102139;28;935;-74
2020/12/18 12:36:35;;;;;;;;;;;;;;;22.47;25.16;98923.22;5100327;28;1701;-75
2020/12/18 12:39:01;;;;;;;;;;;;;;;22.59;25.02;98919.81;5102163;28;1094;-75
2020/12/18 12:41:35;;;;;;;;;;;;;;;22.92;24.66;98918.06;5102260;28;591;-75
2020/12/18 12:44:07;;;;;;;;;;;;;;;22.95;24.37;98916.38;5102127;28;725;-75
2020/12/18 12:46:36;;;;;;;;;;;;;;;22.43;25.13;98919.63;5086907;28;1594;-74
2020/12/18 12:49:02;;;;;;;;;;;;;;;21.50;26.37;98915.19;5081400;28;856;-74
2020/12/18 12:51:27;;;;;;;;;;;;;;;21.36;26.78;98921.84;5081718;28;897;-75
2020/12/18 12:53:52;;;;;;;;;;;;;;;22.08;26.14;98925.38;5081786;28;1909;-75
2020/12/18 12:56:18;;;;;;;;;;;;;;;22.53;25.20;98924.34;5089835;28;1547;-75
2020/12/18 12:58:43;;;;;;;;;;;;;;;22.62;25.02;98924.59;5096652;28;1590;-75
2020/12/18 13:01:09;;;;;;;;;;;;;;;22.85;24.84;98929.50;5099182;28;1445;-75
2020/12/18 13:03:34;;;;;;;;;;;;;;;22.69;24.72;98929.34;5101338;28;838;-74
2020/12/18 13:06:00;;;;;;;;;;;;;;;21.38;26.63;98936.38;5099792;28;1512;-75
2020/12/18 13:08:25;;;;;;;;;;;;;;;21.48;26.38;98935.44;5101739;28;709;-74
2020/12/18 13:10:51;;;;;;;;;;;;;;;21.47;26.88;98939.50;5084088;28;1606;-74
2020/12/18 13:13:16;;;;;;;;;;;;;;;22.01;25.89;98938.84;5098340;28;2001;-74
2020/12/18 13:15:42;;;;;;;;;;;;;;;22.45;25.39;98939.88;5101395;28;1004;-74